Sedgwick Reserve, California Weather observations

Data are for 10 minute period ending at time listed.
 Day   Time   Solar   Ave.   Ave.  Ave.  Vector  Max.   Baro.   Total    
  of    of     Rad.   Air    Rel.  Wind   Wind   Wind  Press.  Precip.   
Year   Day            Temp.  Hum.  Speed  Dir.   Gust                    
2014   (PST)  Kw/m2    F      %     mph   deg.    mph    mb.     in.     
-------------------------------------------------------------------------
 332    0:30   0.00   51.2    49    0.2   360     1.6   974.9    0.00 
 332    0:40   0.00   51.0    49    0.3   261     1.4   974.8    0.00 
 332    0:50   0.00   51.5    48    0.3   201     1.2   974.7    0.00 
 332    1:00   0.00   51.1    49    0.6   221     1.6   974.7    0.00 
 332    1:10   0.00   50.7    50    0.8   254     1.8   974.6    0.00 
 332    1:20   0.00   50.7    48    0.5   268     1.6   974.6    0.00 
 332    1:30   0.00   51.0    48    0.1    12     0.9   974.6    0.00 
 332    1:40   0.00   50.1    48    0.8   345     2.6   974.6    0.00 
 332    1:50   0.00   50.0    49    0.2   236     1.2   974.5    0.00 
 332    2:00   0.00   50.3    48    0.4   253     1.6   974.5    0.00 
 332    2:10   0.00   50.6    47    0.4   268     1.5   974.4    0.00 
 332    2:20   0.00   50.8    46    0.2    36     2.5   974.4    0.00 
 332    2:30   0.00   50.6    47    0.8   264     2.9   974.3    0.00 
 332    2:40   0.00   50.6    46    0.6   275     2.0   974.3    0.00 
 332    2:50   0.00   50.9    46    0.1   140     0.9   974.3    0.00 
 332    3:00   0.00   51.3    45    1.1   355     2.6   974.2    0.00 
 332    3:10   0.00   51.1    45    0.4   274     2.8   974.1    0.00 
 332    3:20   0.00   50.9    46    1.3   218     2.8   974.0    0.00 
 332    3:30   0.00   51.1    45    1.2   261     2.7   974.0    0.00 
 332    3:40   0.00   50.2    47    0.1   265     1.1   973.9    0.00 
 332    3:50   0.00   50.4    46    0.0     0     0.0   973.9    0.00 
 332    4:00   0.00   50.0    46    1.2   355     2.6   973.8    0.00 
 332    4:10   0.00   49.9    47    0.3   350     1.7   973.8    0.00 
 332    4:20   0.00   50.1    47    0.3   255     1.4   973.7    0.00 
 332    4:30   0.00   50.1    47    0.1   239     0.9   973.6    0.00 
 332    4:40   0.00   50.3    47    0.7   334     3.8   973.5    0.00 
 332    4:50   0.00   50.5    46    1.5   278     3.7   973.4    0.00 
 332    5:00   0.00   51.1    46    1.0   258     3.3   973.4    0.00 
 332    5:10   0.00   50.0    47    0.4   234     2.2   973.3    0.00 
 332    5:20   0.00   50.1    47    0.1   223     0.9   973.3    0.00 
 332    5:30   0.00   49.8    48    0.0     0     0.0   973.3    0.00 
 332    5:40   0.00   49.2    48    0.6   232     1.8   973.4    0.00 
 332    5:50   0.00   49.3    48    0.5   221     2.6   973.4    0.00 
 332    6:00   0.00   49.2    48    1.2   257     3.1   973.4    0.00 
 332    6:10   0.00   49.4    48    0.8   356     2.5   973.4    0.00 
 332    6:20   0.00   50.0    47    0.7   216     1.5   973.4    0.00 
 332    6:30   0.00   49.5    47    0.2   198     0.9   973.4    0.00 
 332    6:40   0.00   49.6    46    0.9   313     3.1   973.4    0.00 
 332    6:50   0.00   50.1    45    0.2    43     1.8   973.4    0.00 
 332    7:00   0.01   49.6    46    1.5   261     2.3   973.4    0.00 
 332    7:10   0.02   49.9    45    0.2   222     1.2   973.4    0.00 
 332    7:20   0.05   51.0    44    0.0   107     0.4   973.4    0.00 
 332    7:30   0.08   52.6    43    0.1   107     0.9   973.4    0.00 
 332    7:40   0.10   53.6    42    0.3   354     1.4   973.3    0.00 
 332    7:50   0.13   56.7    38    0.2   193     1.3   973.3    0.00 
 332    8:00   0.16   59.3    36    0.1    24     1.2   973.4    0.00 
 332    8:10   0.19   58.9    41    0.2    31     1.3   973.3    0.00 
 332    8:20   0.22   59.8    38    2.1   355     3.6   973.3    0.00 
 332    8:30   0.24   63.0    35    0.7    11     2.3   973.3    0.00 
 332    8:40   0.27   65.8    32    0.0   355     0.9   973.3    0.00 
 332    8:50   0.30   68.0    30    0.1   337     1.3   973.4    0.00 
 332    9:00   0.33   71.2    26    0.5   147     2.2   973.6    0.00 
 332    9:10   0.35   73.1    26    1.0   107     2.5   973.7    0.00 
 332    9:20   0.38   72.7    25    2.6   138     3.7   973.9    0.00 
 332    9:30   0.40   71.8    25    2.7   125     4.6   974.0    0.00 
 332    9:40   0.42   73.0    23    2.7   128     4.7   974.0    0.00 
 332    9:50   0.44   73.3    24    2.5   133     4.0   974.0    0.00 
 332   10:00   0.46   75.7    22    1.6   139     3.4   973.9    0.00 
 332   10:10   0.48   78.0    20    1.2   134     2.4   973.9    0.00 
 332   10:20   0.50   78.6    18    1.7   105     3.0   973.9    0.00 
 332   10:30   0.51   79.6    17    2.8   111     4.7   973.8    0.00 
 332   10:40   0.52   79.9    17    3.4   134     5.0   973.7    0.00 
 332   10:50   0.54   80.4    17    3.6   114     5.3   973.6    0.00 
 332   11:00   0.52   81.1    16    4.2   124     6.5   973.5    0.00 
 332   11:10   0.55   80.3    16    4.9   151     8.6   973.3    0.00 
 332   11:20   0.56   80.9    16    4.3   159     7.1   973.2    0.00 
 332   11:30   0.56   80.8    15    4.2   158     6.1   973.0    0.00 
 332   11:40   0.57   81.4    15    5.0   176    10.3   972.8    0.00 
 332   11:50   0.58   80.2    15    7.5   220    10.9   972.7    0.00 
 332   12:00   0.58   79.9    15    7.8   244    12.2   972.6    0.00 
 332   12:10   0.57   80.4    15    7.5   228    12.1   972.5    0.00 
 332   12:20   0.56   80.2    16    8.5   244    14.1   972.3    0.00 
 332   12:30   0.56   80.3    17    7.2   224    12.9   972.2    0.00 
 332   12:40   0.55   80.4    18    8.2   255    13.7   972.1    0.00 
 332   12:50   0.54   80.2    18    7.8   273    12.0   972.0    0.00 
 332   13:00   0.53   79.8    19    7.5   275    11.8   972.0    0.00 
 332   13:10   0.52   79.5    19    7.2   271    11.9   971.9    0.00 
 332   13:20   0.51   79.5    18    6.9   252    11.7   971.7    0.00 
 332   13:30   0.49   79.5    19    6.6   264     9.9   971.7    0.00 
 332   13:40   0.47   80.2    18    5.4   271     8.9   971.6    0.00 
 332   13:50   0.46   79.7    19    6.2   258    11.8   971.5    0.00 
 332   14:00   0.44   80.1    18    5.0   256     8.7   971.4    0.00 
 332   14:10   0.42   80.1    18    6.3   255     9.1   971.4    0.00 
 332   14:20   0.40   80.4    18    6.0   282    10.0   971.3    0.00 
 332   14:30   0.37   80.2    18    5.7   283     9.4   971.2    0.00 
 332   14:40   0.35   79.8    19    7.0   283    12.3   971.2    0.00 
 332   14:50   0.32   79.5    20    6.9   284    11.4   971.2    0.00 
 332   15:00   0.30   79.0    20    7.3   276    10.8   971.1    0.00 
 332   15:10   0.27   78.9    20    7.5   284    12.3   971.1    0.00 
 332   15:20   0.24   78.3    20    7.7   276    10.5   971.1    0.00 
 332   15:30   0.21   77.9    19    7.4   277    10.5   971.1    0.00 
 332   15:40   0.19   77.8    17    6.3   280    10.3   971.0    0.00 
 332   15:50   0.16   77.6    16    6.6   279     9.3   971.0    0.00 
 332   16:00   0.13   77.0    13    5.8   276     8.9   971.0    0.00 
 332   16:10   0.10   76.2    11    6.0   283     9.6   971.0    0.00 
 332   16:20   0.08   75.8    12    5.1   287     8.8   971.0    0.00 
 332   16:30   0.05   74.0    13    6.1   276     7.9   970.9    0.00 
 332   16:40   0.01   72.4    14    5.6   280     7.7   970.8    0.00 
 332   16:50   0.00   71.2    15    3.3   329     6.0   970.7    0.00 
 332   17:00   0.00   70.1    16    2.5   325     4.1   970.5    0.00 
 332   17:10   0.00   67.8    19    1.7   289     3.3   970.3    0.00 
 332   17:20   0.00   63.9    22    1.5   299     4.5   970.2    0.00 
 332   17:30   0.00   61.3    26    2.5   352     5.8   970.1    0.00 
 332   17:40   0.00   59.5    29    2.1   353     4.2   970.1    0.00 
 332   17:50   0.00   58.3    29    1.8   261     3.9   970.1    0.00 
 332   18:00   0.00   58.1    31    2.3    15     4.6   970.2    0.00 
 332   18:10   0.00   56.6    32    1.4   305     3.0   970.2    0.00 
 332   18:20   0.00   55.8    34    0.8   352     2.9   970.1    0.00 
 332   18:30   0.00   54.5    35    1.9   308     3.4   970.2    0.00 
 332   18:40   0.00   54.7    35    0.4   240     1.3   970.3    0.00 
 332   18:50   0.00   54.1    35    2.2     6     4.8   970.4    0.00 
 332   19:00   0.00   51.9    37    4.1   357     5.3   970.5    0.00 
 332   19:10   0.00   52.1    37    1.6   284     3.9   970.6    0.00 
 332   19:20   0.00   52.0    37    0.8    12     2.6   970.7    0.00 
 332   19:30   0.00   51.3    40    0.7   252     2.7   970.8    0.00 
 332   19:40   0.00   50.3    38    1.4    20     2.7   970.8    0.00 
 332   19:50   0.00   50.0    43    0.7   221     1.8   970.7    0.00 
 332   20:00   0.00   50.5    40    0.2     5     1.3   970.8    0.00 
 332   20:10   0.00   50.1    44    0.7   294     3.1   970.8    0.00 
 332   20:20   0.00   49.7    42    0.9   354     3.3   970.7    0.00 
 332   20:30   0.00   49.3    46    1.5   272     2.4   970.7    0.00 
 332   20:40   0.00   49.5    41    1.4   359     3.8   970.7    0.00 
 332   20:50   0.00   49.3    46    0.8   239     2.2   970.7    0.00 
 332   21:00   0.00   48.8    45    0.3   219     1.1   970.7    0.00 
 332   21:10   0.00   48.2    43    0.0     0     0.0   970.7    0.00 
 332   21:20   0.00   48.2    41    0.1   125     0.7   970.7    0.00 
 332   21:30   0.00   47.8    42    0.5   292     1.4   970.6    0.00 
 332   21:40   0.00   48.5    42    1.1   275     2.1   970.6    0.00 
 332   21:50   0.00   48.4    44    1.8   347     4.2   970.7    0.00 
 332   22:00   0.00   48.1    43    1.1   265     2.4   970.6    0.00 
 332   22:10   0.00   48.5    42    0.3   265     1.3   970.6    0.00 
 332   22:20   0.00   48.4    42    0.1   282     1.2   970.6    0.00 
 332   22:30   0.00   47.9    45    0.4   274     1.8   970.6    0.00 
 332   22:40   0.00   47.4    46    0.5   248     1.5   970.6    0.00 
 332   22:50   0.00   47.3    42    0.1    32     0.9   970.6    0.00 
 332   23:00   0.00   47.7    40    0.4    20     2.0   970.5    0.00 
 332   23:10   0.00   47.5    42    0.5   271     1.4   970.5    0.00 
 332   23:20   0.00   47.4    48    0.7   235     2.9   970.4    0.00 
 332   23:30   0.00   47.1    49    0.7   201     1.7   970.4    0.00 
 332   23:40   0.00   48.0    48    1.7   274     2.9   970.3    0.00 
 332   23:50   0.00   47.4    44    0.9   272     2.4   970.3    0.00 
 333    0:00   0.00   46.8    46    0.2   321     1.4   970.3    0.00 
 333    0:10   0.00   46.6    44    0.1    16     0.9   970.3    0.00 
 333    0:20   0.00   46.2    45    0.1   252     0.9   970.3    0.00 

Return to Sedgwick Reserve graphs page.


Western Regional Climate Center,wrcc@dri.edu